sensor_id;sensor_type;location;lat;lon;timestamp;temperature;humidity
46562;DHT22;32289;42.688;23.330;2022-09-02T00:01:48;19.70;99.90
46562;DHT22;32289;42.688;23.330;2022-09-02T00:05:29;19.70;99.90
46562;DHT22;32289;42.688;23.330;2022-09-02T00:09:11;19.80;99.90
46562;DHT22;32289;42.688;23.330;2022-09-02T00:12:52;19.90;99.90
46562;DHT22;32289;42.688;23.330;2022-09-02T00:16:34;19.80;99.90
46562;DHT22;32289;42.688;23.330;2022-09-02T00:20:14;19.90;99.90
46562;DHT22;32289;42.688;23.330;2022-09-02T00:23:55;19.90;99.90
46562;DHT22;32289;42.688;23.330;2022-09-02T00:27:36;19.80;99.90
46562;DHT22;32289;42.688;23.330;2022-09-02T00:31:16;19.80;99.90
46562;DHT22;32289;42.688;23.330;2022-09-02T00:34:58;19.80;99.90
46562;DHT22;32289;42.688;23.330;2022-09-02T00:38:39;19.90;99.90
46562;DHT22;32289;42.688;23.330;2022-09-02T00:42:21;20.00;99.90
46562;DHT22;32289;42.688;23.330;2022-09-02T00:46:02;20.10;99.90
46562;DHT22;32289;42.688;23.330;2022-09-02T00:49:47;20.20;99.90
46562;DHT22;32289;42.688;23.330;2022-09-02T00:53:29;20.20;99.90
46562;DHT22;32289;42.688;23.330;2022-09-02T00:57:12;20.30;99.90
46562;DHT22;32289;42.688;23.330;2022-09-02T01:00:58;20.30;99.90
46562;DHT22;32289;42.688;23.330;2022-09-02T01:04:39;20.30;99.90
46562;DHT22;32289;42.688;23.330;2022-09-02T01:08:27;20.50;99.90
46562;DHT22;32289;42.688;23.330;2022-09-02T01:12:09;20.40;99.90
46562;DHT22;32289;42.688;23.330;2022-09-02T01:16:01;20.50;99.80
46562;DHT22;32289;42.688;23.330;2022-09-02T01:19:49;20.50;98.90
46562;DHT22;32289;42.688;23.330;2022-09-02T01:23:31;20.40;98.50
46562;DHT22;32289;42.688;23.330;2022-09-02T01:27:18;20.60;98.30
46562;DHT22;32289;42.688;23.330;2022-09-02T01:30:59;20.40;98.30
46562;DHT22;32289;42.688;23.330;2022-09-02T01:34:40;20.40;98.60
46562;DHT22;32289;42.688;23.330;2022-09-02T01:38:21;20.40;98.70
46562;DHT22;32289;42.688;23.330;2022-09-02T01:42:06;20.40;99.60
46562;DHT22;32289;42.688;23.330;2022-09-02T01:45:48;20.40;99.70
46562;DHT22;32289;42.688;23.330;2022-09-02T01:49:29;20.30;99.90
46562;DHT22;32289;42.688;23.330;2022-09-02T01:53:10;20.10;99.60
46562;DHT22;32289;42.688;23.330;2022-09-02T01:56:51;20.00;98.60
46562;DHT22;32289;42.688;23.330;2022-09-02T02:00:32;20.00;97.60
46562;DHT22;32289;42.688;23.330;2022-09-02T02:04:12;19.90;97.50
46562;DHT22;32289;42.688;23.330;2022-09-02T02:07:53;19.90;97.80
46562;DHT22;32289;42.688;23.330;2022-09-02T02:11:34;19.90;97.60
46562;DHT22;32289;42.688;23.330;2022-09-02T02:15:17;19.70;98.10
46562;DHT22;32289;42.688;23.330;2022-09-02T02:18:58;19.60;98.60
46562;DHT22;32289;42.688;23.330;2022-09-02T02:22:39;19.60;98.90
46562;DHT22;32289;42.688;23.330;2022-09-02T02:26:20;19.50;99.90
46562;DHT22;32289;42.688;23.330;2022-09-02T02:30:01;19.40;99.90
46562;DHT22;32289;42.688;23.330;2022-09-02T02:33:41;19.60;99.90
46562;DHT22;32289;42.688;23.330;2022-09-02T02:37:22;19.40;99.90
46562;DHT22;32289;42.688;23.330;2022-09-02T02:41:03;19.40;99.90
46562;DHT22;32289;42.688;23.330;2022-09-02T02:44:45;19.20;99.90
46562;DHT22;32289;42.688;23.330;2022-09-02T02:48:26;19.20;99.90
46562;DHT22;32289;42.688;23.330;2022-09-02T02:52:08;19.20;99.90
46562;DHT22;32289;42.688;23.330;2022-09-02T02:55:49;19.10;99.90
46562;DHT22;32289;42.688;23.330;2022-09-02T02:59:30;19.00;99.90
46562;DHT22;32289;42.688;23.330;2022-09-02T03:03:13;19.10;99.90
46562;DHT22;32289;42.688;23.330;2022-09-02T03:06:54;19.00;99.90
46562;DHT22;32289;42.688;23.330;2022-09-02T03:10:36;18.90;99.90
46562;DHT22;32289;42.688;23.330;2022-09-02T03:14:18;18.90;99.90
46562;DHT22;32289;42.688;23.330;2022-09-02T03:18:02;18.90;99.90
46562;DHT22;32289;42.688;23.330;2022-09-02T03:21:44;18.80;99.90
46562;DHT22;32289;42.688;23.330;2022-09-02T03:25:27;18.80;99.90
46562;DHT22;32289;42.688;23.330;2022-09-02T03:29:08;18.70;99.90
46562;DHT22;32289;42.688;23.330;2022-09-02T03:32:50;18.60;99.90
46562;DHT22;32289;42.688;23.330;2022-09-02T03:36:35;18.60;99.90
46562;DHT22;32289;42.688;23.330;2022-09-02T03:40:23;18.80;99.90
46562;DHT22;32289;42.688;23.330;2022-09-02T03:44:04;18.70;99.90
46562;DHT22;32289;42.688;23.330;2022-09-02T03:47:48;18.60;99.90
46562;DHT22;32289;42.688;23.330;2022-09-02T03:51:33;18.70;99.90
46562;DHT22;32289;42.688;23.330;2022-09-02T03:55:14;18.80;99.90
46562;DHT22;32289;42.688;23.330;2022-09-02T03:58:55;18.70;99.90
46562;DHT22;32289;42.688;23.330;2022-09-02T04:02:36;18.70;99.90
46562;DHT22;32289;42.688;23.330;2022-09-02T04:06:18;18.80;99.90
46562;DHT22;32289;42.688;23.330;2022-09-02T04:10:00;18.90;99.90
46562;DHT22;32289;42.688;23.330;2022-09-02T04:13:44;18.70;99.90
46562;DHT22;32289;42.688;23.330;2022-09-02T04:17:25;18.90;99.90
46562;DHT22;32289;42.688;23.330;2022-09-02T04:21:06;19.00;99.90
46562;DHT22;32289;42.688;23.330;2022-09-02T04:24:47;19.00;99.90
46562;DHT22;32289;42.688;23.330;2022-09-02T04:28:28;19.10;99.90
46562;DHT22;32289;42.688;23.330;2022-09-02T04:32:09;19.10;99.90
46562;DHT22;32289;42.688;23.330;2022-09-02T04:35:50;18.90;99.90
46562;DHT22;32289;42.688;23.330;2022-09-02T04:39:31;18.90;99.90
46562;DHT22;32289;42.688;23.330;2022-09-02T04:43:12;18.90;99.90
46562;DHT22;32289;42.688;23.330;2022-09-02T04:46:53;19.00;99.90
46562;DHT22;32289;42.688;23.330;2022-09-02T04:50:36;19.00;99.90
46562;DHT22;32289;42.688;23.330;2022-09-02T04:54:17;18.90;99.90
46562;DHT22;32289;42.688;23.330;2022-09-02T04:58:02;18.70;99.90
46562;DHT22;32289;42.688;23.330;2022-09-02T05:01:43;18.80;99.90
46562;DHT22;32289;42.688;23.330;2022-09-02T05:05:23;19.10;99.90
46562;DHT22;32289;42.688;23.330;2022-09-02T05:09:04;19.20;99.90
46562;DHT22;32289;42.688;23.330;2022-09-02T05:12:45;19.30;99.90
46562;DHT22;32289;42.688;23.330;2022-09-02T05:16:29;19.20;99.90
46562;DHT22;32289;42.688;23.330;2022-09-02T05:20:10;19.30;99.90
46562;DHT22;32289;42.688;23.330;2022-09-02T05:23:51;19.50;99.90
46562;DHT22;32289;42.688;23.330;2022-09-02T05:27:32;19.40;99.90
46562;DHT22;32289;42.688;23.330;2022-09-02T05:31:15;19.50;99.90
46562;DHT22;32289;42.688;23.330;2022-09-02T05:34:57;19.40;99.90
46562;DHT22;32289;42.688;23.330;2022-09-02T05:38:39;19.40;99.90
46562;DHT22;32289;42.688;23.330;2022-09-02T05:42:20;19.10;99.90
46562;DHT22;32289;42.688;23.330;2022-09-02T05:46:08;18.80;99.90
46562;DHT22;32289;42.688;23.330;2022-09-02T05:49:52;18.80;99.90
46562;DHT22;32289;42.688;23.330;2022-09-02T05:53:32;18.80;99.90
46562;DHT22;32289;42.688;23.330;2022-09-02T05:57:16;19.40;99.90
46562;DHT22;32289;42.688;23.330;2022-09-02T06:00:57;19.30;99.90
46562;DHT22;32289;42.688;23.330;2022-09-02T06:04:40;19.20;99.90
46562;DHT22;32289;42.688;23.330;2022-09-02T06:08:24;19.30;99.90
46562;DHT22;32289;42.688;23.330;2022-09-02T06:12:06;19.20;99.90
46562;DHT22;32289;42.688;23.330;2022-09-02T06:15:49;19.70;99.90
46562;DHT22;32289;42.688;23.330;2022-09-02T06:19:30;19.70;99.90
46562;DHT22;32289;42.688;23.330;2022-09-02T06:23:13;19.60;99.90
46562;DHT22;32289;42.688;23.330;2022-09-02T06:26:54;19.50;99.90
46562;DHT22;32289;42.688;23.330;2022-09-02T06:30:41;19.40;99.90
46562;DHT22;32289;42.688;23.330;2022-09-02T06:34:29;19.70;99.90
46562;DHT22;32289;42.688;23.330;2022-09-02T06:38:10;19.70;99.90
46562;DHT22;32289;42.688;23.330;2022-09-02T06:41:54;19.60;99.90
46562;DHT22;32289;42.688;23.330;2022-09-02T06:45:39;19.60;99.90
46562;DHT22;32289;42.688;23.330;2022-09-02T06:49:20;19.70;99.90
46562;DHT22;32289;42.688;23.330;2022-09-02T06:53:01;19.90;99.90
46562;DHT22;32289;42.688;23.330;2022-09-02T06:56:45;20.00;99.90
46562;DHT22;32289;42.688;23.330;2022-09-02T07:00:27;19.90;99.90
46562;DHT22;32289;42.688;23.330;2022-09-02T07:04:08;19.90;99.90
46562;DHT22;32289;42.688;23.330;2022-09-02T07:08:07;19.70;99.90
46562;DHT22;32289;42.688;23.330;2022-09-02T07:11:49;20.00;99.90
46562;DHT22;32289;42.688;23.330;2022-09-02T07:15:30;20.00;99.90
46562;DHT22;32289;42.688;23.330;2022-09-02T07:19:14;19.70;99.90
46562;DHT22;32289;42.688;23.330;2022-09-02T07:22:55;20.00;99.90
46562;DHT22;32289;42.688;23.330;2022-09-02T07:26:36;20.00;99.90
46562;DHT22;32289;42.688;23.330;2022-09-02T07:30:17;20.30;99.90
46562;DHT22;32289;42.688;23.330;2022-09-02T07:33:58;20.50;99.90
46562;DHT22;32289;42.688;23.330;2022-09-02T07:37:38;20.20;99.90
46562;DHT22;32289;42.688;23.330;2022-09-02T07:41:23;20.50;99.90
46562;DHT22;32289;42.688;23.330;2022-09-02T07:45:05;20.60;99.90
46562;DHT22;32289;42.688;23.330;2022-09-02T07:48:47;20.50;99.90
46562;DHT22;32289;42.688;23.330;2022-09-02T07:52:33;20.60;99.90
46562;DHT22;32289;42.688;23.330;2022-09-02T07:56:14;20.50;99.90
46562;DHT22;32289;42.688;23.330;2022-09-02T07:59:56;20.60;99.90
46562;DHT22;32289;42.688;23.330;2022-09-02T08:03:41;20.80;99.70
46562;DHT22;32289;42.688;23.330;2022-09-02T08:07:23;20.80;99.60
46562;DHT22;32289;42.688;23.330;2022-09-02T08:11:04;20.90;99.90
46562;DHT22;32289;42.688;23.330;2022-09-02T08:14:52;21.00;99.60
46562;DHT22;32289;42.688;23.330;2022-09-02T08:18:38;21.10;98.80
46562;DHT22;32289;42.688;23.330;2022-09-02T08:22:18;20.60;99.90
46562;DHT22;32289;42.688;23.330;2022-09-02T08:26:05;20.70;99.90
46562;DHT22;32289;42.688;23.330;2022-09-02T08:29:46;20.60;99.90
46562;DHT22;32289;42.688;23.330;2022-09-02T08:33:27;20.80;98.80
46562;DHT22;32289;42.688;23.330;2022-09-02T08:37:14;20.80;98.50
46562;DHT22;32289;42.688;23.330;2022-09-02T08:40:56;20.40;99.90
46562;DHT22;32289;42.688;23.330;2022-09-02T08:44:37;20.80;99.90
46562;DHT22;32289;42.688;23.330;2022-09-02T08:48:38;20.90;99.20
46562;DHT22;32289;42.688;23.330;2022-09-02T08:52:40;21.10;97.90
46562;DHT22;32289;42.688;23.330;2022-09-02T08:56:22;20.90;97.50
46562;DHT22;32289;42.688;23.330;2022-09-02T09:00:06;21.10;98.10
46562;DHT22;32289;42.688;23.330;2022-09-02T09:11:37;21.20;97.40
46562;DHT22;32289;42.688;23.330;2022-09-02T09:19:49;21.70;95.80
46562;DHT22;32289;42.688;23.330;2022-09-02T09:23:33;22.10;94.30
46562;DHT22;32289;42.688;23.330;2022-09-02T09:27:20;21.60;95.60
46562;DHT22;32289;42.688;23.330;2022-09-02T09:31:01;21.60;95.80
46562;DHT22;32289;42.688;23.330;2022-09-02T09:46:31;22.90;92.20
46562;DHT22;32289;42.688;23.330;2022-09-02T09:50:15;23.10;91.40
46562;DHT22;32289;42.688;23.330;2022-09-02T09:54:17;23.10;90.50
46562;DHT22;32289;42.688;23.330;2022-09-02T09:58:07;23.10;91.00
46562;DHT22;32289;42.688;23.330;2022-09-02T10:01:50;23.30;90.30
46562;DHT22;32289;42.688;23.330;2022-09-02T10:05:34;22.80;91.00
46562;DHT22;32289;42.688;23.330;2022-09-02T10:13:15;22.00;93.60
46562;DHT22;32289;42.688;23.330;2022-09-02T10:40:44;23.60;90.10
46562;DHT22;32289;42.688;23.330;2022-09-02T10:44:32;23.50;89.20
46562;DHT22;32289;42.688;23.330;2022-09-02T10:56:22;24.00;86.20
46562;DHT22;32289;42.688;23.330;2022-09-02T11:00:14;24.20;84.20
46562;DHT22;32289;42.688;23.330;2022-09-02T11:08:02;24.40;83.60
46562;DHT22;32289;42.688;23.330;2022-09-02T11:12:01;24.30;83.50
46562;DHT22;32289;42.688;23.330;2022-09-02T11:19:45;25.80;80.00
46562;DHT22;32289;42.688;23.330;2022-09-02T11:23:45;25.00;82.00
46562;DHT22;32289;42.688;23.330;2022-09-02T11:27:39;24.80;82.30
46562;DHT22;32289;42.688;23.330;2022-09-02T11:35:23;26.00;77.80
46562;DHT22;32289;42.688;23.330;2022-09-02T11:39:18;24.60;82.70
46562;DHT22;32289;42.688;23.330;2022-09-02T11:43:43;25.20;81.50
46562;DHT22;32289;42.688;23.330;2022-09-02T11:47:51;25.50;76.80
46562;DHT22;32289;42.688;23.330;2022-09-02T11:55:46;24.80;83.20
46562;DHT22;32289;42.688;23.330;2022-09-02T12:03:31;25.30;79.80
46562;DHT22;32289;42.688;23.330;2022-09-02T12:10:58;24.70;82.00
46562;DHT22;32289;42.688;23.330;2022-09-02T12:18:27;24.30;84.70
46562;DHT22;32289;42.688;23.330;2022-09-02T12:26:05;25.70;80.10
46562;DHT22;32289;42.688;23.330;2022-09-02T12:29:48;25.00;81.20
46562;DHT22;32289;42.688;23.330;2022-09-02T12:33:46;24.90;82.70
46562;DHT22;32289;42.688;23.330;2022-09-02T12:45:45;24.30;83.30
46562;DHT22;32289;42.688;23.330;2022-09-02T12:49:36;24.80;82.90
46562;DHT22;32289;42.688;23.330;2022-09-02T12:57:05;25.40;78.70
46562;DHT22;32289;42.688;23.330;2022-09-02T13:04:59;24.40;82.90
46562;DHT22;32289;42.688;23.330;2022-09-02T13:09:10;24.40;82.80
46562;DHT22;32289;42.688;23.330;2022-09-02T13:13:10;24.30;84.30
46562;DHT22;32289;42.688;23.330;2022-09-02T13:17:12;24.00;84.90
46562;DHT22;32289;42.688;23.330;2022-09-02T13:21:24;23.80;86.30
46562;DHT22;32289;42.688;23.330;2022-09-02T13:25:27;23.50;86.60
46562;DHT22;32289;42.688;23.330;2022-09-02T13:33:18;23.40;87.20
46562;DHT22;32289;42.688;23.330;2022-09-02T13:36:59;23.40;89.70
46562;DHT22;32289;42.688;23.330;2022-09-02T13:40:42;23.50;87.60
46562;DHT22;32289;42.688;23.330;2022-09-02T13:44:27;23.60;86.80
46562;DHT22;32289;42.688;23.330;2022-09-02T13:48:17;23.10;90.40
46562;DHT22;32289;42.688;23.330;2022-09-02T13:51:58;22.20;95.10
46562;DHT22;32289;42.688;23.330;2022-09-02T13:55:49;21.90;96.20
46562;DHT22;32289;42.688;23.330;2022-09-02T13:59:32;22.10;99.90
46562;DHT22;32289;42.688;23.330;2022-09-02T14:03:18;22.00;99.30
46562;DHT22;32289;42.688;23.330;2022-09-02T14:07:00;21.40;99.30
46562;DHT22;32289;42.688;23.330;2022-09-02T14:10:41;20.80;99.90
46562;DHT22;32289;42.688;23.330;2022-09-02T14:14:24;20.20;99.90
46562;DHT22;32289;42.688;23.330;2022-09-02T14:18:21;20.10;99.90
46562;DHT22;32289;42.688;23.330;2022-09-02T14:22:04;19.60;99.90
46562;DHT22;32289;42.688;23.330;2022-09-02T14:25:51;18.60;99.90
46562;DHT22;32289;42.688;23.330;2022-09-02T14:29:33;18.60;99.90
46562;DHT22;32289;42.688;23.330;2022-09-02T14:37:28;18.80;99.90
46562;DHT22;32289;42.688;23.330;2022-09-02T14:41:24;18.50;99.90
46562;DHT22;32289;42.688;23.330;2022-09-02T14:45:05;18.90;99.90
46562;DHT22;32289;42.688;23.330;2022-09-02T14:49:07;18.60;99.90
46562;DHT22;32289;42.688;23.330;2022-09-02T14:52:57;18.90;99.90
46562;DHT22;32289;42.688;23.330;2022-09-02T14:56:43;18.60;99.90
46562;DHT22;32289;42.688;23.330;2022-09-02T15:00:24;18.50;99.90
46562;DHT22;32289;42.688;23.330;2022-09-02T15:04:05;18.60;99.90
46562;DHT22;32289;42.688;23.330;2022-09-02T15:07:46;19.00;99.90
46562;DHT22;32289;42.688;23.330;2022-09-02T15:11:27;19.40;99.90
46562;DHT22;32289;42.688;23.330;2022-09-02T15:15:08;19.40;99.90
46562;DHT22;32289;42.688;23.330;2022-09-02T15:18:48;19.50;99.90
46562;DHT22;32289;42.688;23.330;2022-09-02T15:22:29;19.40;99.90
46562;DHT22;32289;42.688;23.330;2022-09-02T15:26:10;19.30;99.90
46562;DHT22;32289;42.688;23.330;2022-09-02T15:29:50;19.60;99.90
46562;DHT22;32289;42.688;23.330;2022-09-02T15:33:32;19.50;99.90
46562;DHT22;32289;42.688;23.330;2022-09-02T15:37:13;19.40;99.90
46562;DHT22;32289;42.688;23.330;2022-09-02T15:40:53;19.30;99.90
46562;DHT22;32289;42.688;23.330;2022-09-02T15:44:34;19.20;99.90
46562;DHT22;32289;42.688;23.330;2022-09-02T15:48:15;19.20;99.90
46562;DHT22;32289;42.688;23.330;2022-09-02T15:51:55;19.30;99.90
46562;DHT22;32289;42.688;23.330;2022-09-02T15:55:36;19.20;99.90
46562;DHT22;32289;42.688;23.330;2022-09-02T15:59:18;19.20;99.90
46562;DHT22;32289;42.688;23.330;2022-09-02T16:03:00;19.30;99.90
46562;DHT22;32289;42.688;23.330;2022-09-02T16:06:43;19.30;99.90
46562;DHT22;32289;42.688;23.330;2022-09-02T16:10:24;19.30;99.90
46562;DHT22;32289;42.688;23.330;2022-09-02T16:14:06;19.30;99.90
46562;DHT22;32289;42.688;23.330;2022-09-02T16:17:46;19.10;99.90
46562;DHT22;32289;42.688;23.330;2022-09-02T16:21:29;19.00;99.90
46562;DHT22;32289;42.688;23.330;2022-09-02T16:25:10;19.00;99.90
46562;DHT22;32289;42.688;23.330;2022-09-02T16:28:56;18.80;99.90
46562;DHT22;32289;42.688;23.330;2022-09-02T16:32:37;18.70;99.90
46562;DHT22;32289;42.688;23.330;2022-09-02T16:36:19;18.60;99.90
46562;DHT22;32289;42.688;23.330;2022-09-02T16:40:00;18.50;99.90
46562;DHT22;32289;42.688;23.330;2022-09-02T16:43:43;18.50;99.90
46562;DHT22;32289;42.688;23.330;2022-09-02T16:47:24;18.60;99.90
46562;DHT22;32289;42.688;23.330;2022-09-02T16:51:05;18.70;99.90
46562;DHT22;32289;42.688;23.330;2022-09-02T16:54:45;18.50;99.90
46562;DHT22;32289;42.688;23.330;2022-09-02T16:58:28;18.20;99.90
46562;DHT22;32289;42.688;23.330;2022-09-02T17:02:09;18.20;99.90
46562;DHT22;32289;42.688;23.330;2022-09-02T17:05:50;18.40;99.90
46562;DHT22;32289;42.688;23.330;2022-09-02T17:09:31;18.40;99.90
46562;DHT22;32289;42.688;23.330;2022-09-02T17:13:12;18.20;99.90
46562;DHT22;32289;42.688;23.330;2022-09-02T17:16:54;18.30;99.90
46562;DHT22;32289;42.688;23.330;2022-09-02T17:20:34;18.30;99.90
46562;DHT22;32289;42.688;23.330;2022-09-02T17:24:16;18.10;99.90
46562;DHT22;32289;42.688;23.330;2022-09-02T17:27:58;18.10;99.90
46562;DHT22;32289;42.688;23.330;2022-09-02T17:31:39;18.10;99.90
46562;DHT22;32289;42.688;23.330;2022-09-02T17:35:20;18.10;99.90
46562;DHT22;32289;42.688;23.330;2022-09-02T17:39:14;18.10;99.90
46562;DHT22;32289;42.688;23.330;2022-09-02T17:42:55;18.10;99.90
46562;DHT22;32289;42.688;23.330;2022-09-02T17:46:36;18.00;99.90
46562;DHT22;32289;42.688;23.330;2022-09-02T17:50:17;17.90;99.90
46562;DHT22;32289;42.688;23.330;2022-09-02T17:53:58;17.90;99.90
46562;DHT22;32289;42.688;23.330;2022-09-02T17:58:06;17.90;99.90
46562;DHT22;32289;42.688;23.330;2022-09-02T18:09:20;17.90;99.90
46562;DHT22;32289;42.688;23.330;2022-09-02T18:13:05;17.80;99.90
46562;DHT22;32289;42.688;23.330;2022-09-02T18:20:42;17.80;99.90
46562;DHT22;32289;42.688;23.330;2022-09-02T18:24:30;18.00;99.90
46562;DHT22;32289;42.688;23.330;2022-09-02T18:32:58;17.60;99.90
46562;DHT22;32289;42.688;23.330;2022-09-02T18:48:51;17.70;99.90
46562;DHT22;32289;42.688;23.330;2022-09-02T18:52:36;17.60;99.90
46562;DHT22;32289;42.688;23.330;2022-09-02T18:56:18;17.50;99.90
46562;DHT22;32289;42.688;23.330;2022-09-02T19:00:07;17.40;99.90
46562;DHT22;32289;42.688;23.330;2022-09-02T19:03:48;17.40;99.90
46562;DHT22;32289;42.688;23.330;2022-09-02T19:07:30;17.50;99.90
46562;DHT22;32289;42.688;23.330;2022-09-02T19:11:34;17.50;99.90
46562;DHT22;32289;42.688;23.330;2022-09-02T19:15:15;17.50;99.90
46562;DHT22;32289;42.688;23.330;2022-09-02T19:18:56;17.30;99.90
46562;DHT22;32289;42.688;23.330;2022-09-02T19:22:40;17.40;99.90
46562;DHT22;32289;42.688;23.330;2022-09-02T19:26:23;17.40;99.90
46562;DHT22;32289;42.688;23.330;2022-09-02T19:30:12;17.30;99.90
46562;DHT22;32289;42.688;23.330;2022-09-02T19:33:58;17.40;99.90
46562;DHT22;32289;42.688;23.330;2022-09-02T19:37:39;17.30;99.90
46562;DHT22;32289;42.688;23.330;2022-09-02T19:41:20;17.30;99.90
46562;DHT22;32289;42.688;23.330;2022-09-02T19:45:08;17.10;99.90
46562;DHT22;32289;42.688;23.330;2022-09-02T19:48:48;17.10;99.90
46562;DHT22;32289;42.688;23.330;2022-09-02T19:52:29;17.10;99.90
46562;DHT22;32289;42.688;23.330;2022-09-02T19:56:11;17.10;99.90
46562;DHT22;32289;42.688;23.330;2022-09-02T19:59:55;17.20;99.90
46562;DHT22;32289;42.688;23.330;2022-09-02T20:03:36;17.20;99.90
46562;DHT22;32289;42.688;23.330;2022-09-02T20:07:17;17.10;99.90
46562;DHT22;32289;42.688;23.330;2022-09-02T20:11:00;17.10;99.90
46562;DHT22;32289;42.688;23.330;2022-09-02T20:14:41;17.20;99.90
46562;DHT22;32289;42.688;23.330;2022-09-02T20:18:24;17.10;99.90
46562;DHT22;32289;42.688;23.330;2022-09-02T20:22:06;17.10;99.90
46562;DHT22;32289;42.688;23.330;2022-09-02T20:30:09;17.10;99.90
46562;DHT22;32289;42.688;23.330;2022-09-02T20:38:09;17.20;99.90
46562;DHT22;32289;42.688;23.330;2022-09-02T20:45:57;17.20;99.90
46562;DHT22;32289;42.688;23.330;2022-09-02T20:54:11;17.00;99.90
46562;DHT22;32289;42.688;23.330;2022-09-02T21:01:57;17.10;99.90
46562;DHT22;32289;42.688;23.330;2022-09-02T21:05:42;17.00;99.90
46562;DHT22;32289;42.688;23.330;2022-09-02T21:09:41;17.00;99.90
46562;DHT22;32289;42.688;23.330;2022-09-02T21:13:57;17.20;99.90
46562;DHT22;32289;42.688;23.330;2022-09-02T21:17:49;17.10;99.90
46562;DHT22;32289;42.688;23.330;2022-09-02T21:21:54;17.00;99.90
46562;DHT22;32289;42.688;23.330;2022-09-02T21:26:02;16.90;99.90
46562;DHT22;32289;42.688;23.330;2022-09-02T21:30:04;16.90;99.90
46562;DHT22;32289;42.688;23.330;2022-09-02T21:33:46;17.00;99.90
46562;DHT22;32289;42.688;23.330;2022-09-02T21:37:31;16.90;99.90
46562;DHT22;32289;42.688;23.330;2022-09-02T21:46:04;16.90;99.90
46562;DHT22;32289;42.688;23.330;2022-09-02T21:50:15;16.80;99.90
46562;DHT22;32289;42.688;23.330;2022-09-02T21:57:41;16.80;99.90
46562;DHT22;32289;42.688;23.330;2022-09-02T22:01:48;16.80;99.90
46562;DHT22;32289;42.688;23.330;2022-09-02T22:09:27;16.80;99.90
46562;DHT22;32289;42.688;23.330;2022-09-02T22:13:09;16.80;99.90
46562;DHT22;32289;42.688;23.330;2022-09-02T22:17:00;16.90;99.90
46562;DHT22;32289;42.688;23.330;2022-09-02T22:21:02;16.90;99.90
46562;DHT22;32289;42.688;23.330;2022-09-02T22:24:45;16.80;99.90
46562;DHT22;32289;42.688;23.330;2022-09-02T22:28:36;16.80;99.90
46562;DHT22;32289;42.688;23.330;2022-09-02T22:32:20;16.80;99.90
46562;DHT22;32289;42.688;23.330;2022-09-02T22:40:18;16.90;99.90
46562;DHT22;32289;42.688;23.330;2022-09-02T22:44:20;16.80;99.90
46562;DHT22;32289;42.688;23.330;2022-09-02T22:48:17;16.80;99.90
46562;DHT22;32289;42.688;23.330;2022-09-02T22:56:41;16.80;99.90
46562;DHT22;32289;42.688;23.330;2022-09-02T23:00:26;16.80;99.90
46562;DHT22;32289;42.688;23.330;2022-09-02T23:08:07;16.70;99.90
46562;DHT22;32289;42.688;23.330;2022-09-02T23:12:00;16.80;99.90
46562;DHT22;32289;42.688;23.330;2022-09-02T23:19:42;16.80;99.90
46562;DHT22;32289;42.688;23.330;2022-09-02T23:27:43;16.70;99.90
46562;DHT22;32289;42.688;23.330;2022-09-02T23:39:45;16.60;99.90
46562;DHT22;32289;42.688;23.330;2022-09-02T23:43:28;16.70;99.90
46562;DHT22;32289;42.688;23.330;2022-09-02T23:51:16;16.60;99.90
46562;DHT22;32289;42.688;23.330;2022-09-02T23:55:09;16.70;99.90
